GCLA

Details ICAO GCLA (SPC)
Name La Palma
Region Canary Islands
Timezone Atlantic/Canary (UTC+1.0)
Plans Departing 313
Arriving 453
Stats Elevation 106 ft / 32 m (AMSL)
Location 28.626400° -17.755600°
Runways 1
Magnetic Variation 5.423° W
Sunrise 2018-10-15 07:12:50 UTC / 2018-10-15 08:12:50 Local
Sunset 2018-10-15 18:43:05 UTC / 2018-10-15 19:43:05 Local
Advertisement - Login to hide

Runways

ID Width Length Bearing (true/mag) Surface Threshold Overrun Markings Lighting
18 148 ft / 45 m 7,225 ft / 2,202 m 179.01° / 184.43° ASPHALT 0 ft / 0 m 279 ft / 85 m UK-PREC-APP CENTERLINE EDGE THRESHOLD SALS
36 148 ft / 45 m 7,225 ft / 2,202 m 359.01° / 4.43° ASPHALT 0 ft / 0 m 243 ft / 74 m PREC-APP CENTERLINE EDGE THRESHOLD

Map

Weather


0- 5 10 15 20 25 30 35+ Temperature / °C

Clouds and Precipitation
Forecast for 2018-10-15 06:00 UTC. Updated 5 hours ago

Ground ~20,000 ft ~40,000 ft Winds

METAR

GCLA 150830Z 34009KT 9999 FEW025 BKN030 22/17 Q1018

TAF

TAF GCLA 150800Z 1509/1609 03011KT 9999 SCT025 TX26/1515Z TN21/1605Z

Frequencies

Tower 118.90 MHz La Palma Tower
Ground 121.80 MHz La Palma Ground
Recorded 118.60 MHz La Palma Information
Approach 126.10 MHz La Palma Approach
Warning: Do not use this data for real-world aviation or navigation. No guarantee of current accuracy is given.